Little Mackinaw, Illinois
Current Conditions -  °F | °C
As of 2:35 PM on Tuesday 25 Nov 2014 (Local Time) from KAAA Reporting Station
Broken Clouds Broken Clouds  
Wind Chill: 32°   Ceiling: 2000
Heat Index: 32°   Visibility: 10mi
Dew Point: 23°   Wind: 3mph
Humidity: 70%   Direction: 280°W
Pressure: 30.16"   Gusts: NA
Location:  40.4411°N, 89.3259°W
Report Text: KAAA 252035Z AUTO 28003KT 10SM BKN020 00/M05 A3016 RMK AO2 T00011048
Loading
Personal Weather Stations






























Interactive Weather Map New forecast layout! Learn more

10-Day Weather Forecast

Advertisements
Track Severe Weather on mobile